METAR Data
IDs: Format: Raw Decoded Include TAF

Data at: 0330 UTC 19 Oct 2021

PPIT 190256Z AUTO 16007KT 10SM CLR M02/M02 A2952 RMK AO2 SLP000 T10171017 58029 FZRANO TSNO
PPIT 190156Z AUTO 15007KT 10SM FEW011 M02/M02 A2955 RMK AO2 SLP011 T10171017 FZRANO TSNO
PPIT 190056Z AUTO 16003KT 10SM CLR M02/M02 A2958 RMK AO2 SLP020 T10171017 FZRANO TSNO
PPIT 190007Z AUTO 11003KT 10SM SCT010 M01/M02 A2960 RMK AO2 FZRANO TSNO
PPIT 182356Z AUTO 09003KT 10SM BKN010 M01/M02 A2961 RMK AO2 SLP029 T10111022 11006 21044 56030 FZRANO TSNO
PPIT 182303Z AUTO 00000KT 10SM BKN010 M01/M02 A2964 RMK AO2 FZRANO TSNO
PPIT 182256Z AUTO 00000KT 10SM SCT010 M01/M02 A2964 RMK AO2 SLP040 T10111022 FZRANO TSNO
PPIT 182156Z AUTO 08004KT 10SM CLR M02/M02 A2966 RMK AO2 SLP048 T10171022 FZRANO TSNO
PPIT 182056Z AUTO 07006KT 10SM CLR M02/M03 A2970 RMK AO2 SLP059 T10171028 56014 FZRANO TSNO
PPIT 181956Z AUTO 08008KT 10SM FEW002 M03/M03 A2970 RMK AO2 SLP062 T10281028 FZRANO TSNO
PPIT 181856Z AUTO 07008KT 10SM CLR M03/M03 A2972 RMK AO2 SLP068 T10281028 FZRANO TSNO
PPIT 181756Z AUTO 04005KT 10SM CLR M04/ A2974 RMK AO2 SLP073 T1044 11039 21056 58011 FZRANO TSNO
PPIT 181656Z AUTO 04006KT 10SM CLR M06/M06 A2975 RMK AO2 SLP079 T10561056 FZRANO TSNO
PPIT 181556Z AUTO 01007KT 10SM CLR M05/ A2977 RMK AO2 SLP083 T1050 FZRANO TSNO
PPIT 181456Z AUTO 35007KT 10SM CLR M04/ A2977 RMK AO2 SLP084 T1044 51004 FZRANO TSNO
PPIT 181356Z AUTO 01010KT 10SM CLR M04/ A2977 RMK AO2 SLP084 T1039 FZRANO TSNO
PPIT 181256Z AUTO 36009KT 10SM CLR M04/M04 A2977 RMK AO2 SLP085 T10391039 FZRANO TSNO
PPIT 181156Z AUTO 36010KT 10SM CLR M04/M04 A2976 RMK AO2 SLP081 T10391039 11006 21039 51012 FZRANO TSNO
PPIT 181056Z AUTO 36011KT 10SM CLR M03/M03 A2975 RMK AO2 SLP077 T10331033 FZRANO TSNO
PPIT 180956Z AUTO 36012KT 10SM CLR M03/M03 A2974 RMK AO2 SLP074 T10281028 FZRANO TSNO
PPIT 180856Z AUTO 35013KT 10SM CLR M02/M02 A2972 RMK AO2 SLP069 T10221022 400281022 51030 FZRANO TSNO
PPIT 180756Z AUTO 36015KT 10SM CLR M02/M02 A2970 RMK AO2 SLP059 T10171017 FZRANO TSNO
PPIT 180656Z AUTO 36014KT 10SM CLR M02/M02 A2967 RMK AO2 SLP049 T10171017 FZRANO TSNO
PPIT 180456Z AUTO 36014KT 10SM CLR 00/M01 A2961 RMK AO2 SLP028 T00001011 FZRANO TSNO
PPIT 180356Z AUTO 01014KT 10SM OVC075 01/M01 A2957 RMK AO2 SLP017 T00111006 FZRANO TSNO
PPIT 180256Z AUTO 01015G22KT 10SM OVC080 01/00 A2953 RMK AO2 SLP003 T00110000 53045 FZRANO TSNO
PPIT 180156Z AUTO 02014KT 10SM BKN080 02/01 A2948 RMK AO2 SLP987 T00220006 FZRANO TSNO
PPIT 180056Z AUTO 04022G28KT 10SM CLR 02/M01 A2944 RMK AO2 PK WND 05029/0007 SLP971 T00221011 FZRANO TSNO
PPIT 172356Z AUTO 04023G28KT 10SM CLR 02/00 A2940 RMK AO2 PK WND 05032/2315 SLP957 T00220000 10028 20000 51039 FZRANO TSNO
PPIT 172256Z AUTO 04025G30KT 10SM CLR 02/M01 A2936 RMK AO2 PK WND 05036/2201 SLP945 T00221006 FZRANO TSNO
PPIT 172156Z AUTO 05025G33KT 10SM OVC070 02/M01 A2932 RMK AO2 PK WND 05037/2144 SLP932 T00171011 FZRANO TSNO
PPIT 172056Z AUTO 05026G32KT 10SM CLR 01/M01 A2928 RMK AO2 PK WND 05035/2002 SLP919 T00111011 53038 FZRANO TSNO
PPIT 171956Z AUTO 05028G34KT 10SM SCT080 OVC100 01/M01 A2925 RMK AO2 PK WND 05036/1900 SLP907 T00111011 FZRANO TSNO
PPIT 171856Z AUTO 05023G35KT 10SM BKN070 OVC100 01/M02 A2920 RMK AO2 PK WND 05036/1836 SLP890 T00061017 FZRANO TSNO
PPIT 171756Z AUTO 05031G35KT 10SM BKN080 BKN095 00/M01 A2917 RMK AO2 PK WND 05035/1756 SLP881 60000 T00001011 10006 20000 53025 FZRANO TSNO
PPIT 171656Z AUTO 05026G32KT 10SM SCT010 OVC075 00/00 A2914 RMK AO2 PK WND 05033/1623 SLP870 T00000000 FZRANO TSNO
PPIT 171556Z AUTO 05023G29KT 10SM OVC070 01/01 A2910 RMK AO2 PK WND 05035/1524 SLP859 T00060006 FZRANO TSNO